Time;durP1;ratioP1;P1;durP2;ratioP2;P2;SDS_P1;SDS_P2;PMS_P1;PMS_P2;Temp;Humidity;BMP_temperature;BMP_pressure;BME280_temperature;BME280_humidity;BME280_pressure;Samples;Min_cycle;Max_cycle;Signal;HPM_P1;HPM_P2
2023/11/24 01:06:51;;;;;;;9.80;5.30;;;;;;;12.18;54.10;98475.54;105881;1255;72791;-87
2023/11/24 01:09:24;;;;;;;9.30;5.30;;;;;;;12.23;53.83;98471.12;105948;1257;61221;-83
2023/11/24 01:11:58;;;;;;;10.70;5.60;;;;;;;12.16;53.91;98471.10;106059;1255;61259;-83
2023/11/24 01:14:25;;;;;;;10.60;5.70;;;;;;;12.09;54.21;98470.63;106054;1260;74740;-83
2023/11/24 01:17:03;;;;;;;10.20;5.30;;;;;;;12.15;54.12;98465.34;106092;1254;68490;-84
2023/11/24 01:19:39;;;;;;;11.40;5.60;;;;;;;12.12;54.17;98462.75;106118;1257;71053;-86
2023/11/24 01:22:13;;;;;;;11.00;5.60;;;;;;;12.14;54.05;98457.73;105911;1256;61438;-87
2023/11/24 01:24:47;;;;;;;9.50;5.20;;;;;;;12.16;54.13;98456.94;106230;1255;61209;-84
2023/11/24 01:27:21;;;;;;;9.80;5.10;;;;;;;12.15;54.12;98454.24;106022;1257;74638;-84
2023/11/24 01:29:55;;;;;;;10.70;5.00;;;;;;;12.12;54.19;98457.17;106073;1255;69006;-84
2023/11/24 01:32:29;;;;;;;9.70;5.00;;;;;;;12.16;54.12;98450.81;106062;1257;72712;-85
2023/11/24 01:35:06;;;;;;;10.30;4.90;;;;;;;12.12;54.19;98445.22;106301;1259;61283;-83
2023/11/24 01:37:40;;;;;;;10.80;5.70;;;;;;;12.18;54.07;98437.52;105897;1254;61424;-85
2023/11/24 01:40:17;;;;;;;11.20;5.20;;;;;;;12.18;53.69;98424.99;106122;1255;74605;-85
2023/11/24 01:42:51;;;;;;;8.50;4.60;;;;;;;12.17;53.84;98423.88;106095;1256;68406;-83
2023/11/24 01:45:24;;;;;;;9.70;5.50;;;;;;;12.13;53.82;98415.31;106173;1255;72702;-82
2023/11/24 01:47:56;;;;;;;9.40;4.40;;;;;;;12.24;53.56;98412.84;105939;1255;61280;-83
2023/11/24 01:50:28;;;;;;;9.60;5.30;;;;;;;12.26;53.26;98403.14;106065;1261;61239;-82
2023/11/24 01:52:59;;;;;;;8.20;4.80;;;;;;;12.25;53.15;98394.34;106167;1256;74693;-85
2023/11/24 01:55:33;;;;;;;9.50;4.90;;;;;;;12.22;53.35;98397.61;106110;1255;67273;-82
2023/11/24 01:58:05;;;;;;;8.20;5.10;;;;;;;12.19;53.43;98397.34;106181;1256;71422;-82
2023/11/24 02:00:38;;;;;;;8.60;4.30;;;;;;;12.20;53.30;98397.07;105967;1257;61242;-82
2023/11/24 02:03:10;;;;;;;9.70;5.30;;;;;;;12.22;53.23;98393.01;105912;1254;61161;-83
2023/11/24 02:05:43;;;;;;;;;;;;;;;12.24;52.97;98384.94;106369;1254;73908;-82
2023/11/24 02:08:15;;;;;;;8.80;4.30;;;;;;;12.26;53.15;98376.95;106008;1262;67570;-83
2023/11/24 02:10:49;;;;;;;8.20;5.20;;;;;;;12.27;53.45;98378.44;105963;1254;72696;-81
2023/11/24 02:13:25;;;;;;;7.20;4.10;;;;;;;12.26;53.87;98384.67;106053;1255;61364;-82
2023/11/24 02:15:58;;;;;;;9.20;4.20;;;;;;;12.21;54.42;98385.38;106044;1255;61354;-83
2023/11/24 02:18:30;;;;;;;6.80;4.00;;;;;;;12.20;54.78;98384.70;106130;1255;74678;-86
2023/11/24 02:21:02;;;;;;;9.40;5.20;;;;;;;12.07;55.55;98381.61;106092;1255;68382;-86
2023/11/24 02:23:36;;;;;;;9.00;4.70;;;;;;;11.97;56.38;98382.29;105934;1255;72361;-83
2023/11/24 02:26:10;;;;;;;9.20;4.70;;;;;;;11.87;57.43;98380.30;106112;1256;61368;-86
2023/11/24 02:28:44;;;;;;;8.00;4.20;;;;;;;11.74;58.86;98378.66;106213;1255;61157;-85
2023/11/24 02:31:17;;;;;;;9.50;4.40;;;;;;;11.68;59.72;98375.70;106097;1254;74662;-86
2023/11/24 02:33:52;;;;;;;10.00;4.70;;;;;;;11.56;61.32;98373.36;106175;1254;67314;-85
2023/11/24 02:36:30;;;;;;;10.40;5.00;;;;;;;11.48;62.86;98369.92;106277;1256;72637;-86
2023/11/24 02:39:04;;;;;;;7.30;4.40;;;;;;;11.37;63.97;98368.36;106185;1257;61354;-86
2023/11/24 02:41:38;;;;;;;10.50;4.50;;;;;;;11.33;64.97;98364.15;105816;1258;61336;-85
2023/11/24 02:44:11;;;;;;;7.60;4.20;;;;;;;11.27;66.21;98351.81;105911;1260;74660;-87
2023/11/24 02:46:46;;;;;;;9.10;4.60;;;;;;;11.25;67.53;98351.73;106079;1257;68543;-85
2023/11/24 02:49:21;;;;;;;8.20;4.00;;;;;;;11.28;67.96;98343.12;106122;1257;70573;-87
2023/11/24 02:51:55;;;;;;;8.30;4.20;;;;;;;11.26;68.69;98341.79;106053;1257;61376;-87
2023/11/24 02:54:29;;;;;;;8.70;5.00;;;;;;;11.28;69.20;98336.85;106186;1258;61359;-86
2023/11/24 02:57:03;;;;;;;8.60;4.00;;;;;;;11.24;70.10;98331.80;106307;1256;73434;-87
2023/11/24 02:59:37;;;;;;;9.20;4.70;;;;;;;11.23;70.55;98329.95;106183;1258;68826;-86
2023/11/24 03:02:10;;;;;;;7.90;4.30;;;;;;;11.33;70.53;98324.61;106269;1256;72504;-86
2023/11/24 03:04:46;;;;;;;11.00;4.40;;;;;;;11.37;70.55;98331.07;106102;1256;61250;-87
2023/11/24 03:07:20;;;;;;;9.10;3.80;;;;;;;11.39;70.62;98322.44;106132;1258;61420;-86
2023/11/24 03:09:54;;;;;;;7.90;3.90;;;;;;;11.48;70.34;98326.50;106165;1258;73489;-85
2023/11/24 03:12:31;;;;;;;7.80;4.00;;;;;;;11.45;70.65;98323.70;106226;1259;67414;-87
2023/11/24 03:15:05;;;;;;;8.50;4.00;;;;;;;11.35;72.20;98325.30;106175;1256;72689;-86
2023/11/24 03:17:39;;;;;;;6.90;3.50;;;;;;;11.44;72.21;98313.99;106278;1256;61404;-85
2023/11/24 03:20:16;;;;;;;7.90;4.10;;;;;;;11.41;72.47;98315.14;106134;1257;59559;-87
2023/11/24 03:22:50;;;;;;;7.80;4.30;;;;;;;11.36;73.41;98313.23;106036;1260;74676;-84
2023/11/24 03:25:24;;;;;;;7.60;4.10;;;;;;;11.41;74.06;98310.06;106087;1256;68451;-86
2023/11/24 03:27:57;;;;;;;7.20;3.50;;;;;;;11.57;73.16;98305.23;105975;1256;72382;-85
2023/11/24 03:30:29;;;;;;;5.20;3.60;;;;;;;11.69;72.55;98296.02;105959;1257;61329;-86
2023/11/24 03:33:00;;;;;;;7.40;3.90;;;;;;;11.75;72.33;98300.36;106115;1256;61551;-86
2023/11/24 03:35:32;;;;;;;7.50;3.30;;;;;;;11.77;72.28;98289.23;106122;1256;73439;-84
2023/11/24 03:38:11;;;;;;;7.50;3.70;;;;;;;11.89;71.43;98278.25;106156;1256;68904;-85
2023/11/24 03:40:38;;;;;;;7.60;4.10;;;;;;;11.86;71.62;98272.21;106228;1257;72683;-84
2023/11/24 03:43:11;;;;;;;6.20;3.30;;;;;;;11.90;71.77;98270.38;105893;1258;61268;-84
2023/11/24 03:45:39;;;;;;;5.80;4.10;;;;;;;11.88;71.90;98273.75;106055;1259;61907;-84
2023/11/24 03:48:07;;;;;;;7.40;3.80;;;;;;;11.90;71.87;98266.03;106036;1255;73552;-85
2023/11/24 03:50:36;;;;;;;8.20;3.90;;;;;;;11.92;71.80;98267.59;106087;1258;68664;-85
2023/11/24 03:53:08;;;;;;;10.60;4.90;;;;;;;11.70;73.19;98263.29;106171;1256;71355;-88
2023/11/24 03:55:41;;;;;;;7.30;3.90;;;;;;;11.57;76.10;98266.09;106063;1257;61218;-85
2023/11/24 03:58:14;;;;;;;6.80;4.30;;;;;;;11.59;77.83;98256.06;105937;1257;61233;-86
2023/11/24 04:00:46;;;;;;;9.50;4.30;;;;;;;11.60;78.57;98251.33;106143;1259;74628;-86
2023/11/24 04:03:18;;;;;;;9.70;4.80;;;;;;;11.57;79.47;98257.48;106216;1256;68606;-85
2023/11/24 04:05:50;;;;;;;8.00;4.70;;;;;;;11.53;80.61;98254.83;106157;1256;72704;-84
2023/11/24 04:08:23;;;;;;;8.70;4.90;;;;;;;11.45;81.65;98249.50;106074;1256;61298;-86
2023/11/24 04:10:55;;;;;;;9.10;4.90;;;;;;;11.37;82.94;98245.21;106075;1257;61429;-86
2023/11/24 04:13:27;;;;;;;8.70;5.10;;;;;;;11.33;83.45;98241.20;105918;1259;73390;-86
2023/11/24 04:16:00;;;;;;;8.30;5.00;;;;;;;11.32;83.87;98239.03;106045;1258;67983;-84
2023/11/24 04:18:32;;;;;;;8.10;5.00;;;;;;;11.29;84.47;98230.80;105943;1261;71708;-88
2023/11/24 04:21:08;;;;;;;10.30;5.60;;;;;;;11.35;84.62;98228.99;106080;1257;61257;-85
2023/11/24 04:23:40;;;;;;;11.20;5.00;;;;;;;11.38;84.22;98225.29;105920;1256;61256;-86
2023/11/24 04:26:14;;;;;;;9.60;5.10;;;;;;;11.54;83.86;98224.09;105907;1260;74693;-83
2023/11/24 04:28:45;;;;;;;8.10;4.90;;;;;;;11.60;83.32;98213.59;106041;1257;68023;-86
2023/11/24 04:31:19;;;;;;;7.80;4.60;;;;;;;11.58;82.99;98221.80;106058;1257;72690;-84
2023/11/24 04:33:49;;;;;;;8.10;4.60;;;;;;;11.72;81.97;98214.75;105972;1258;61349;-86
2023/11/24 04:36:21;;;;;;;7.90;4.60;;;;;;;11.79;81.14;98217.88;106163;1257;61253;-83
2023/11/24 04:38:54;;;;;;;8.10;4.20;;;;;;;11.87;80.23;98218.21;106320;1256;74649;-86
2023/11/24 04:41:25;;;;;;;6.90;4.30;;;;;;;12.00;79.16;98212.09;106148;1257;68901;-83
2023/11/24 04:43:57;;;;;;;6.40;4.20;;;;;;;12.09;77.50;98209.38;106172;1259;72620;-86
2023/11/24 04:46:30;;;;;;;7.40;4.30;;;;;;;12.17;76.85;98200.69;105922;1258;61243;-83
2023/11/24 04:49:03;;;;;;;7.50;3.60;;;;;;;12.12;76.89;98192.35;106164;1256;61313;-85
2023/11/24 04:51:36;;;;;;;6.60;3.70;;;;;;;12.02;77.79;98187.35;106199;1258;74632;-84
2023/11/24 04:54:09;;;;;;;6.70;3.70;;;;;;;12.05;77.16;98179.47;105934;1257;67259;-84
2023/11/24 04:56:41;;;;;;;8.40;4.30;;;;;;;12.16;76.76;98178.00;106140;1259;72683;-86
2023/11/24 04:59:14;;;;;;;8.10;4.60;;;;;;;12.17;76.48;98172.38;106181;1259;61394;-83
2023/11/24 05:01:46;;;;;;;5.80;3.80;;;;;;;12.12;76.80;98163.64;106136;1257;61357;-85
2023/11/24 05:04:18;;;;;;;9.40;4.20;;;;;;;12.12;76.11;98160.58;106030;1257;72823;-83
2023/11/24 05:06:58;;;;;;;10.50;5.60;;;;;;;12.15;75.68;98158.27;105964;1258;66432;-83
2023/11/24 05:09:27;;;;;;;7.80;4.20;;;;;;;12.20;75.77;98141.88;106181;1255;72769;-83
2023/11/24 05:12:07;;;;;;;7.30;3.70;;;;;;;12.13;75.90;98135.04;106037;1255;61224;-85
2023/11/24 05:14:47;;;;;;;7.30;3.70;;;;;;;12.11;75.59;98124.28;106201;1257;61140;-86
2023/11/24 05:17:20;;;;;;;5.60;3.10;;;;;;;12.13;75.40;98126.35;105972;1260;74636;-83
2023/11/24 05:19:54;;;;;;;6.90;3.30;;;;;;;12.08;75.94;98119.08;106252;1259;67604;-83
2023/11/24 05:22:35;;;;;;;5.80;3.30;;;;;;;11.97;76.22;98114.96;106121;1255;73241;-83
2023/11/24 05:25:14;;;;;;;5.50;3.10;;;;;;;12.05;76.73;98106.25;106096;1259;61221;-83
2023/11/24 05:27:54;;;;;;;4.70;3.10;;;;;;;12.04;76.89;98095.59;106333;1256;61261;-83
2023/11/24 05:30:23;;;;;;;4.80;3.00;;;;;;;11.90;77.81;98089.02;106374;1260;73195;-86
2023/11/24 05:33:07;;;;;;;5.20;3.20;;;;;;;11.92;77.29;98084.45;106215;1256;69017;-86
2023/11/24 05:35:47;;;;;;;4.70;3.30;;;;;;;12.01;77.10;98080.03;106320;1256;71553;-86
2023/11/24 05:38:28;;;;;;;5.20;3.40;;;;;;;12.07;77.11;98077.99;106312;1259;61288;-83
2023/11/24 05:40:55;;;;;;;5.60;3.40;;;;;;;12.03;77.65;98069.05;106479;1257;61144;-83
2023/11/24 05:43:36;;;;;;;5.40;3.20;;;;;;;12.04;76.16;98083.14;106313;1257;73772;-82
2023/11/24 05:46:16;;;;;;;7.30;4.30;;;;;;;12.15;74.67;98077.45;106156;1259;69132;-86
2023/11/24 05:48:49;;;;;;;5.80;3.50;;;;;;;12.26;73.04;98106.23;106109;1256;70618;-86
2023/11/24 05:51:25;;;;;;;7.50;3.90;;;;;;;12.37;72.90;98096.77;106155;1255;61110;-86
2023/11/24 05:54:05;;;;;;;5.50;3.40;;;;;;;12.41;72.78;98099.60;106087;1256;61211;-85
2023/11/24 05:56:45;;;;;;;5.60;3.30;;;;;;;12.43;72.28;98100.94;106228;1259;74644;-86
2023/11/24 05:59:19;;;;;;;4.80;2.90;;;;;;;12.44;70.89;98099.61;106137;1257;68419;-87
2023/11/24 06:01:54;;;;;;;6.50;2.90;;;;;;;12.40;72.05;98102.88;106208;1256;71482;-87
2023/11/24 06:04:34;;;;;;;5.80;3.10;;;;;;;12.14;73.91;98098.23;106095;1255;61112;-83
2023/11/24 06:07:18;;;;;;;5.30;3.00;;;;;;;12.08;74.28;98094.68;106229;1256;61104;-87
2023/11/24 06:09:52;;;;;;;5.90;3.20;;;;;;;12.18;74.29;98097.70;106263;1257;74592;-84
2023/11/24 06:12:28;;;;;;;5.80;3.20;;;;;;;12.27;73.33;98084.27;106084;1256;68517;-86
2023/11/24 06:15:09;;;;;;;5.70;3.70;;;;;;;12.40;72.77;98084.50;106196;1256;71442;-86
2023/11/24 06:17:49;;;;;;;6.40;3.20;;;;;;;12.47;71.27;98086.18;106081;1259;61253;-86
2023/11/24 06:20:23;;;;;;;5.60;2.90;;;;;;;12.54;69.87;98086.20;105949;1258;61166;-85
2023/11/24 06:23:03;;;;;;;3.30;2.40;;;;;;;12.57;69.51;98087.23;106091;1257;73415;-84
2023/11/24 06:25:43;;;;;;;5.00;2.80;;;;;;;12.67;68.81;98083.10;106151;1259;67489;-83
2023/11/24 06:28:24;;;;;;;6.10;2.70;;;;;;;12.69;68.97;98091.46;105985;1256;72838;-83
2023/11/24 06:31:06;;;;;;;5.20;2.80;;;;;;;12.62;69.55;98094.79;106251;1257;61371;-83
2023/11/24 06:33:47;;;;;;;;;;;;;;;12.62;69.14;98098.69;106003;1260;61249;-85
2023/11/24 06:36:27;;;;;;;5.20;2.40;;;;;;;12.71;68.79;98122.67;106181;1255;74707;-85
2023/11/24 06:39:10;;;;;;;3.80;2.60;;;;;;;12.78;68.83;98134.84;105990;1260;68579;-86
2023/11/24 06:41:53;;;;;;;5.80;2.90;;;;;;;12.61;70.83;98139.70;105963;1255;73095;-83
2023/11/24 06:44:33;;;;;;;5.30;2.70;;;;;;;12.57;70.81;98146.39;106165;1256;61215;-83
2023/11/24 06:47:13;;;;;;;3.80;2.40;;;;;;;12.57;70.44;98140.92;106244;1258;61313;-84
2023/11/24 06:49:53;;;;;;;4.70;2.70;;;;;;;12.57;71.30;98132.94;106188;1257;75091;-90
2023/11/24 06:52:32;;;;;;;5.00;2.70;;;;;;;12.68;70.05;98132.52;106274;1259;67432;-86
2023/11/24 06:55:13;;;;;;;4.30;2.50;;;;;;;12.78;69.12;98129.81;106302;1257;72268;-86
2023/11/24 06:57:53;;;;;;;3.50;2.70;;;;;;;12.78;69.81;98133.20;105958;1258;61110;-90
2023/11/24 07:00:32;;;;;;;5.00;2.90;;;;;;;12.70;68.54;98125.31;106170;1255;61484;-91
2023/11/24 07:03:13;;;;;;;3.90;2.30;;;;;;;12.83;68.04;98124.80;106101;1260;74582;-84
2023/11/24 07:05:52;;;;;;;5.20;2.40;;;;;;;12.81;69.10;98120.98;106260;1256;68801;-84
2023/11/24 07:08:33;;;;;;;4.80;2.50;;;;;;;12.91;70.54;98132.22;105984;1256;71694;-85
2023/11/24 07:11:13;;;;;;;4.40;2.30;;;;;;;12.86;69.41;98135.99;106008;1256;61390;-84
2023/11/24 07:13:53;;;;;;;3.40;2.20;;;;;;;12.81;69.35;98139.95;106072;1260;61257;-90
2023/11/24 07:16:33;;;;;;;3.80;2.30;;;;;;;12.81;70.17;98147.92;106394;1256;73702;-84
2023/11/24 07:19:13;;;;;;;4.30;2.40;;;;;;;12.84;69.89;98144.57;105973;1256;67283;-84
2023/11/24 07:21:54;;;;;;;2.80;1.90;;;;;;;12.83;67.16;98134.56;106077;1256;72666;-85
2023/11/24 07:24:34;;;;;;;4.10;2.60;;;;;;;12.92;68.44;98132.55;106332;1255;61327;-91
2023/11/24 07:27:14;;;;;;;4.30;2.40;;;;;;;12.93;66.55;98132.90;106032;1257;61346;-90
2023/11/24 07:29:54;;;;;;;4.10;2.20;;;;;;;13.08;66.69;98128.13;106090;1256;74680;-93
2023/11/24 07:32:34;;;;;;;4.90;2.10;;;;;;;13.07;66.01;98131.15;106021;1255;68822;-91
2023/11/24 07:35:14;;;;;;;4.40;2.30;;;;;;;13.11;65.91;98124.11;106123;1256;72446;-84
2023/11/24 07:37:55;;;;;;;5.00;2.50;;;;;;;13.19;64.86;98127.37;106181;1257;61340;-84
2023/11/24 07:40:35;;;;;;;3.70;1.90;;;;;;;13.21;64.41;98125.55;106089;1256;61417;-84
2023/11/24 07:43:15;;;;;;;3.40;2.30;;;;;;;13.23;66.26;98118.30;106079;1259;74963;-84
2023/11/24 07:45:55;;;;;;;3.70;2.10;;;;;;;13.36;68.24;98115.20;106006;1258;67239;-84
2023/11/24 07:48:35;;;;;;;3.40;2.10;;;;;;;13.47;67.72;98123.54;106240;1258;71470;-84
2023/11/24 07:51:15;;;;;;;3.60;2.50;;;;;;;13.67;65.67;98132.95;106079;1257;61426;-84
2023/11/24 07:53:55;;;;;;;3.40;2.30;;;;;;;13.67;66.90;98130.86;106067;1256;61261;-84
2023/11/24 07:56:34;;;;;;;2.70;1.70;;;;;;;13.54;66.45;98133.05;106066;1256;74607;-84
2023/11/24 07:59:15;;;;;;;4.10;2.60;;;;;;;13.42;67.33;98135.55;106164;1256;68399;-84
2023/11/24 08:01:48;;;;;;;3.30;2.30;;;;;;;13.45;66.89;98145.75;106043;1257;71465;-84
2023/11/24 08:04:22;;;;;;;3.60;1.90;;;;;;;13.69;65.69;98144.77;106261;1256;61580;-84
2023/11/24 08:06:56;;;;;;;2.70;2.10;;;;;;;13.82;64.08;98148.05;105973;1257;62580;-85
2023/11/24 08:09:32;;;;;;;4.30;2.00;;;;;;;13.94;62.76;98153.73;106059;1258;72831;-83
2023/11/24 08:12:08;;;;;;;3.70;2.10;;;;;;;13.98;60.62;98152.97;106026;1258;68691;-83
2023/11/24 08:14:46;;;;;;;4.90;2.20;;;;;;;13.81;61.47;98149.83;105870;1257;72686;-83
2023/11/24 08:17:20;;;;;;;3.50;1.80;;;;;;;13.82;63.67;98148.13;106080;1257;61358;-82
2023/11/24 08:19:54;;;;;;;4.30;2.50;;;;;;;13.97;64.27;98143.21;106026;1256;61421;-83
2023/11/24 08:22:28;;;;;;;4.10;2.40;;;;;;;14.09;60.85;98140.90;106390;1261;74707;-83
2023/11/24 08:25:03;;;;;;;3.00;2.00;;;;;;;14.19;63.24;98147.23;106230;1259;68335;-83
2023/11/24 08:27:37;;;;;;;4.00;2.00;;;;;;;14.33;63.81;98149.02;106342;1259;75199;-83
2023/11/24 08:30:11;;;;;;;4.50;2.20;;;;;;;14.54;63.32;98140.21;106336;1257;61237;-82
2023/11/24 08:32:48;;;;;;;3.60;2.00;;;;;;;14.65;61.17;98136.52;106200;1256;60057;-83
2023/11/24 08:35:22;;;;;;;2.90;2.10;;;;;;;14.81;61.78;98127.62;106061;1259;74050;-82
2023/11/24 08:37:50;;;;;;;3.70;2.10;;;;;;;14.75;61.05;98122.26;106057;1259;67259;-83
2023/11/24 08:40:34;;;;;;;3.20;2.10;;;;;;;15.01;61.48;98114.16;105963;1258;75155;-85
2023/11/24 08:43:08;;;;;;;4.00;2.20;;;;;;;15.05;60.37;98103.01;106026;1258;61364;-84
2023/11/24 08:45:42;;;;;;;2.60;1.80;;;;;;;15.13;58.18;98107.53;105982;1255;61144;-83
2023/11/24 08:48:16;;;;;;;3.10;2.10;;;;;;;15.29;57.15;98107.50;106049;1259;73465;-83
2023/11/24 08:50:50;;;;;;;2.90;2.00;;;;;;;15.15;60.68;98101.21;106091;1259;71088;-83
2023/11/24 08:53:25;;;;;;;3.70;2.10;;;;;;;14.88;61.28;98100.97;106170;1258;72710;-84
2023/11/24 08:56:06;;;;;;;3.00;1.90;;;;;;;14.77;62.08;98104.22;106346;1254;61314;-83
2023/11/24 08:58:39;;;;;;;3.00;1.80;;;;;;;14.79;60.09;98109.45;106032;1257;61230;-83
2023/11/24 09:01:13;;;;;;;5.80;1.90;;;;;;;14.92;61.87;98107.96;106052;1260;74710;-84
2023/11/24 09:03:47;;;;;;;3.80;2.00;;;;;;;14.99;62.25;98102.34;106126;1258;71606;-84
2023/11/24 09:06:26;;;;;;;1.60;1.30;;;;;;;15.19;60.81;98096.55;106100;1258;73232;-83
2023/11/24 09:09:00;;;;;;;3.60;2.10;;;;;;;15.22;61.55;98087.65;106313;1257;61227;-83
2023/11/24 09:11:34;;;;;;;1.90;1.70;;;;;;;15.29;61.44;98096.58;106129;1259;61231;-83
2023/11/24 09:14:10;;;;;;;3.20;2.00;;;;;;;15.29;61.76;98096.97;106582;1259;74612;-92
2023/11/24 09:16:44;;;;;;;3.70;2.00;;;;;;;15.42;58.69;98091.52;106467;1260;67300;-88
2023/11/24 09:19:18;;;;;;;2.00;1.30;;;;;;;15.50;57.92;98094.95;106347;1256;71425;-93
2023/11/24 09:21:52;;;;;;;2.20;1.80;;;;;;;15.48;57.82;98103.88;106242;1259;61298;-90
2023/11/24 09:24:25;;;;;;;3.00;1.80;;;;;;;15.46;56.87;98088.05;106259;1259;61283;-91
2023/11/24 09:27:12;;;;;;;3.10;1.70;;;;;;;15.51;57.52;98103.61;106415;1256;76923;-87
2023/11/24 09:29:52;;;;;;;2.80;1.80;;;;;;;15.42;56.63;98101.27;106319;1259;68727;-89
2023/11/24 09:32:34;;;;;;;2.60;1.70;;;;;;;15.26;57.50;98104.07;106079;1256;72828;-89
2023/11/24 09:35:15;;;;;;;2.70;1.60;;;;;;;15.32;59.22;98098.03;106140;1257;61292;-89
2023/11/24 09:37:56;;;;;;;3.30;1.70;;;;;;;15.24;57.89;98093.34;106006;1258;231928;-89
2023/11/24 09:40:37;;;;;;;2.10;1.60;;;;;;;15.27;58.43;98087.11;106021;1260;76354;-90
2023/11/24 09:43:17;;;;;;;2.90;1.30;;;;;;;15.37;58.86;98091.43;105952;1258;70711;-91
2023/11/24 09:45:57;;;;;;;1.90;1.40;;;;;;;15.43;60.53;98090.52;106043;1256;72481;-89
2023/11/24 09:48:36;;;;;;;2.50;1.30;;;;;;;15.46;59.28;98084.65;106076;1256;61339;-89
2023/11/24 09:51:16;;;;;;;2.00;1.40;;;;;;;15.46;57.80;98081.45;106169;1258;61251;-89
2023/11/24 09:53:51;;;;;;;2.70;1.70;;;;;;;15.53;58.45;98076.67;105947;1258;74744;-90
2023/11/24 09:56:25;;;;;;;2.10;1.50;;;;;;;15.44;59.33;98077.95;106057;1258;68864;-91
2023/11/24 09:59:00;;;;;;;2.00;1.40;;;;;;;15.23;57.12;98081.46;106203;1258;72609;-92
2023/11/24 10:01:36;;;;;;;2.10;1.60;;;;;;;15.47;58.68;98082.23;106144;1257;61298;-90
2023/11/24 10:04:10;;;;;;;1.70;1.20;;;;;;;15.77;57.68;98076.72;106077;1258;62196;-92
2023/11/24 10:06:45;;;;;;;2.30;1.30;;;;;;;16.00;56.90;98071.39;106234;1261;74668;-86
2023/11/24 10:09:25;;;;;;;3.70;1.40;;;;;;;16.03;54.71;98069.38;106145;1261;67114;-86
2023/11/24 10:11:59;;;;;;;2.70;1.60;;;;;;;15.92;54.77;98069.86;106057;1262;71393;-86
2023/11/24 10:14:32;;;;;;;1.90;1.30;;;;;;;15.75;55.91;98075.20;106079;1257;61346;-87
2023/11/24 10:17:06;;;;;;;2.90;1.30;;;;;;;15.76;58.41;98074.66;106068;1257;61457;-87
2023/11/24 10:19:40;;;;;;;1.20;0.90;;;;;;;15.67;58.80;98074.45;106212;1259;75128;-87
2023/11/24 10:22:14;;;;;;;1.90;1.20;;;;;;;15.81;58.36;98075.06;106148;1256;67565;-85
2023/11/24 10:24:48;;;;;;;1.70;1.00;;;;;;;15.85;57.70;98069.86;106059;1256;74460;-84
2023/11/24 10:27:26;;;;;;;2.30;1.20;;;;;;;15.91;55.41;98072.13;106053;1256;61434;-84
2023/11/24 10:30:00;;;;;;;2.30;1.10;;;;;;;15.86;56.27;98076.63;106202;1258;61165;-83
2023/11/24 10:32:34;;;;;;;4.10;1.20;;;;;;;15.87;56.59;98072.48;106125;1261;74010;-84
2023/11/24 10:35:08;;;;;;;3.10;1.40;;;;;;;15.85;55.19;98066.69;106007;1258;66512;-84
2023/11/24 10:37:43;;;;;;;2.60;1.20;;;;;;;15.73;54.81;98073.66;105968;1258;73030;-83
2023/11/24 10:40:17;;;;;;;2.60;0.90;;;;;;;15.62;54.93;98069.73;105971;1259;61345;-84
2023/11/24 10:42:51;;;;;;;3.40;0.90;;;;;;;15.63;55.49;98072.01;106217;1256;62062;-84
2023/11/24 10:45:25;;;;;;;4.20;1.30;;;;;;;15.65;56.04;98070.07;106064;1259;74668;-84
2023/11/24 10:48:20;;;;;;;2.70;1.10;;;;;;;15.70;54.47;98072.61;106203;1257;69777;-83
2023/11/24 10:51:00;;;;;;;2.70;1.10;;;;;;;15.70;54.89;98075.76;106151;1259;71146;-84
2023/11/24 10:53:48;;;;;;;2.40;1.00;;;;;;;15.77;55.57;98078.08;106088;1258;62243;-83
2023/11/24 10:56:21;;;;;;;3.00;1.10;;;;;;;15.85;53.69;98068.13;106085;1257;61344;-83
2023/11/24 10:58:57;;;;;;;2.50;1.00;;;;;;;15.60;53.46;98083.14;106082;1261;76994;-84
2023/11/24 11:01:31;;;;;;;1.90;1.10;;;;;;;15.59;55.17;98082.91;106196;1259;69535;-84
2023/11/24 11:04:07;;;;;;;3.80;1.50;;;;;;;15.63;55.88;98090.04;106376;1259;72753;-83
2023/11/24 11:06:48;;;;;;;2.40;0.90;;;;;;;15.79;57.27;98089.52;106133;1262;62304;-84
2023/11/24 11:09:29;;;;;;;3.40;1.30;;;;;;;15.78;56.08;98082.73;106047;1262;61311;-83
2023/11/24 11:12:13;;;;;;;2.20;1.10;;;;;;;15.84;55.68;98074.31;105970;1262;74680;-83
2023/11/24 11:14:47;;;;;;;1.20;0.80;;;;;;;15.84;54.78;98081.48;106299;1257;68525;-84
2023/11/24 11:17:25;;;;;;;2.10;1.00;;;;;;;15.87;52.72;98076.88;106056;1256;75039;-84
2023/11/24 11:20:00;;;;;;;1.20;1.10;;;;;;;15.98;54.36;98085.29;106096;1257;61112;-84
2023/11/24 11:22:41;;;;;;;2.20;1.20;;;;;;;16.03;53.08;98084.95;106085;1260;61154;-84
2023/11/24 11:25:22;;;;;;;3.60;1.10;;;;;;;15.80;53.37;98078.34;106239;1256;73556;-84
2023/11/24 11:27:55;;;;;;;2.10;1.00;;;;;;;15.71;54.52;98083.01;106162;1255;68364;-83
2023/11/24 11:30:31;;;;;;;1.90;1.10;;;;;;;15.65;54.54;98084.40;106148;1256;73783;-83
2023/11/24 11:33:08;;;;;;;1.70;1.00;;;;;;;15.56;53.88;98094.71;106105;1255;61730;-84
2023/11/24 11:35:42;;;;;;;2.10;0.90;;;;;;;15.52;55.69;98089.80;106129;1257;62487;-83
2023/11/24 11:38:46;;;;;;;2.80;1.10;;;;;;;15.39;55.56;98075.81;106221;1262;74592;-83
2023/11/24 11:41:45;;;;;;;4.20;1.30;;;;;;;15.37;57.07;98085.15;106076;1256;68758;-83
2023/11/24 11:44:39;;;;;;;1.30;0.90;;;;;;;15.30;56.90;98087.16;106302;1256;74692;-83
2023/11/24 11:47:26;;;;;;;1.90;1.00;;;;;;;15.31;55.18;98081.34;105975;1259;61223;-84
2023/11/24 11:50:07;;;;;;;2.20;1.10;;;;;;;15.44;55.89;98079.75;106149;1257;61457;-84
2023/11/24 11:52:48;;;;;;;1.80;1.00;;;;;;;15.51;54.52;98078.75;106009;1262;74724;-83
2023/11/24 11:55:29;;;;;;;3.20;0.90;;;;;;;15.71;54.66;98073.58;106145;1256;68527;-86
2023/11/24 11:58:09;;;;;;;4.40;1.40;;;;;;;15.84;56.32;98066.77;106124;1256;74730;-86
2023/11/24 12:00:49;;;;;;;3.70;1.40;;;;;;;15.83;54.61;98077.21;106104;1256;61234;-86
2023/11/24 12:03:29;;;;;;;2.00;1.20;;;;;;;15.81;54.95;98087.26;106099;1259;61062;-85
2023/11/24 12:06:12;;;;;;;2.20;1.10;;;;;;;15.85;54.08;98080.71;106001;1259;75309;-83
2023/11/24 12:08:52;;;;;;;2.00;1.00;;;;;;;15.79;52.80;98080.29;106015;1257;67545;-83
2023/11/24 12:11:32;;;;;;;1.90;1.00;;;;;;;15.87;55.66;98085.70;106037;1263;73630;-84
2023/11/24 12:14:20;;;;;;;2.30;1.30;;;;;;;15.86;56.85;98093.30;106076;1256;61693;-84
2023/11/24 12:16:59;;;;;;;1.70;1.00;;;;;;;16.17;56.65;98086.64;106021;1259;61199;-85
2023/11/24 12:19:39;;;;;;;3.40;1.20;;;;;;;16.27;55.28;98083.48;106067;1259;74689;-84
2023/11/24 12:22:21;;;;;;;1.80;1.10;;;;;;;16.07;53.56;98088.08;105936;1257;70349;-85
2023/11/24 12:25:02;;;;;;;1.50;1.00;;;;;;;15.91;54.31;98100.63;106123;1254;72924;-84
2023/11/24 12:27:42;;;;;;;2.00;1.20;;;;;;;15.96;55.67;98095.33;106090;1256;61545;-84
2023/11/24 12:30:24;;;;;;;3.20;1.30;;;;;;;15.80;56.56;98102.02;106269;1257;61769;-85
2023/11/24 12:33:04;;;;;;;2.30;1.20;;;;;;;15.75;56.34;98100.86;106095;1255;73421;-84
2023/11/24 12:35:52;;;;;;;1.30;1.00;;;;;;;15.62;55.66;98106.67;106165;1259;67124;-84
2023/11/24 12:38:32;;;;;;;3.40;1.10;;;;;;;15.55;55.59;98104.62;106091;1262;75021;-84
2023/11/24 12:41:12;;;;;;;2.30;1.00;;;;;;;15.57;54.56;98098.27;106087;1262;61512;-84
2023/11/24 12:43:59;;;;;;;1.80;1.00;;;;;;;15.51;56.07;98100.46;106189;1254;62514;-85
2023/11/24 12:46:39;;;;;;;4.60;1.10;;;;;;;15.49;55.54;98102.86;105954;1259;74710;-84
2023/11/24 12:49:20;;;;;;;4.30;1.20;;;;;;;15.45;54.63;98109.56;105940;1262;67790;-84
2023/11/24 12:52:03;;;;;;;3.00;1.00;;;;;;;15.37;51.81;98112.02;106072;1260;74992;-84
2023/11/24 12:54:43;;;;;;;1.40;0.80;;;;;;;15.22;49.69;98111.79;106070;1256;61630;-85
2023/11/24 12:57:24;;;;;;;2.00;1.10;;;;;;;15.14;51.51;98114.55;106111;1255;61148;-84
2023/11/24 13:00:09;;;;;;;1.70;1.00;;;;;;;15.07;51.91;98121.52;106094;1256;77051;-85
2023/11/24 13:02:56;;;;;;;1.00;0.70;;;;;;;15.01;51.42;98126.81;106063;1260;68316;-83
2023/11/24 13:05:39;;;;;;;5.30;1.20;;;;;;;14.97;51.49;98122.35;106208;1257;71451;-85
2023/11/24 13:08:23;;;;;;;3.40;1.20;;;;;;;14.97;52.86;98132.10;106092;1257;61456;-86
2023/11/24 13:11:03;;;;;;;1.90;1.20;;;;;;;14.95;52.63;98140.71;106113;1258;62136;-84
2023/11/24 13:13:43;;;;;;;1.80;1.00;;;;;;;14.88;53.75;98130.04;106052;1256;73749;-84